sensor_id;sensor_type;location;lat;lon;timestamp;pressure;altitude;pressure_sealevel;temperature;humidity
6528;BME280;3297;42.664;23.256;2022-07-06T00:01:41;50420.56;;;-139.84;89.68
6528;BME280;3297;42.664;23.256;2022-07-06T00:04:07;50406.97;;;-139.84;89.44
6528;BME280;3297;42.664;23.256;2022-07-06T00:06:33;50424.47;;;-139.84;89.36
6528;BME280;3297;42.664;23.256;2022-07-06T00:08:59;50397.25;;;-139.84;88.80
6528;BME280;3297;42.664;23.256;2022-07-06T00:11:25;50395.31;;;-139.84;89.02
6528;BME280;3297;42.664;23.256;2022-07-06T00:13:50;50432.22;;;-139.84;88.69
6528;BME280;3297;42.664;23.256;2022-07-06T00:16:17;50397.25;;;-139.84;88.83
6528;BME280;3297;42.664;23.256;2022-07-06T00:18:45;50408.91;;;-139.84;88.49
6528;BME280;3297;42.664;23.256;2022-07-06T00:21:11;50401.13;;;-139.84;88.27
6528;BME280;3297;42.664;23.256;2022-07-06T00:23:36;50414.75;;;-139.84;88.42
6528;BME280;3297;42.664;23.256;2022-07-06T00:26:02;50428.34;;;-139.84;88.18
6528;BME280;3297;42.664;23.256;2022-07-06T00:28:28;50447.78;;;-139.84;89.11
6528;BME280;3297;42.664;23.256;2022-07-06T00:30:54;50430.28;;;-139.84;89.10
6528;BME280;3297;42.664;23.256;2022-07-06T00:33:20;50405.03;;;-139.84;89.25
6528;BME280;3297;42.664;23.256;2022-07-06T00:35:46;50395.31;;;-139.84;89.15
6528;BME280;3297;42.664;23.256;2022-07-06T00:38:11;50418.63;;;-139.84;89.30
6528;BME280;3297;42.664;23.256;2022-07-06T00:40:37;50447.78;;;-139.84;89.11
6528;BME280;3297;42.664;23.256;2022-07-06T00:43:04;50432.22;;;-139.84;89.81
6528;BME280;3297;42.664;23.256;2022-07-06T00:45:29;50451.66;;;-139.84;89.72
6528;BME280;3297;42.664;23.256;2022-07-06T00:47:55;50432.22;;;-139.84;89.81
6528;BME280;3297;42.664;23.256;2022-07-06T00:50:21;50397.25;;;-139.84;89.63
6528;BME280;3297;42.664;23.256;2022-07-06T00:52:52;50447.78;;;-139.84;90.18
6528;BME280;3297;42.664;23.256;2022-07-06T00:55:24;50440.00;;;-139.84;90.41
6528;BME280;3297;42.664;23.256;2022-07-06T00:57:50;50416.69;;;-139.84;90.53
6528;BME280;3297;42.664;23.256;2022-07-06T01:00:19;50432.22;;;-139.84;91.36
6528;BME280;3297;42.664;23.256;2022-07-06T01:02:45;50440.00;;;-139.84;91.36
6528;BME280;3297;42.664;23.256;2022-07-06T01:05:13;50443.91;;;-139.84;90.87
6528;BME280;3297;42.664;23.256;2022-07-06T01:07:40;50441.94;;;-139.84;91.19
6528;BME280;3297;42.664;23.256;2022-07-06T01:10:07;50434.19;;;-139.84;90.60
6528;BME280;3297;42.664;23.256;2022-07-06T01:12:38;50430.28;;;-139.84;90.59
6528;BME280;3297;42.664;23.256;2022-07-06T01:15:05;50420.56;;;-139.84;90.68
6528;BME280;3297;42.664;23.256;2022-07-06T01:17:32;50403.06;;;-139.84;89.42
6528;BME280;3297;42.664;23.256;2022-07-06T01:20:04;50436.13;;;-139.84;89.24
6528;BME280;3297;42.664;23.256;2022-07-06T01:22:29;50424.47;;;-139.84;89.21
6528;BME280;3297;42.664;23.256;2022-07-06T01:24:54;50416.69;;;-139.84;89.40
6528;BME280;3297;42.664;23.256;2022-07-06T01:27:20;50389.47;;;-139.84;89.10
6528;BME280;3297;42.664;23.256;2022-07-06T01:29:46;50401.13;;;-139.84;89.04
6528;BME280;3297;42.664;23.256;2022-07-06T01:32:11;50428.34;;;-139.84;88.78
6528;BME280;3297;42.664;23.256;2022-07-06T01:34:37;50418.63;;;-139.84;88.53
6528;BME280;3297;42.664;23.256;2022-07-06T01:37:03;50405.03;;;-139.84;87.93
6528;BME280;3297;42.664;23.256;2022-07-06T01:39:28;50416.69;;;-139.84;88.07
6528;BME280;3297;42.664;23.256;2022-07-06T01:41:54;50401.13;;;-139.84;88.61
6528;BME280;3297;42.664;23.256;2022-07-06T01:44:19;50399.19;;;-139.84;88.50
6528;BME280;3297;42.664;23.256;2022-07-06T01:46:45;50418.63;;;-139.84;87.94
6528;BME280;3297;42.664;23.256;2022-07-06T01:49:10;50461.38;;;-139.84;87.05
6528;BME280;3297;42.664;23.256;2022-07-06T01:51:36;50445.84;;;-139.84;87.38
6528;BME280;3297;42.664;23.256;2022-07-06T01:54:01;50405.03;;;-139.84;87.27
6528;BME280;3297;42.664;23.256;2022-07-06T01:56:27;50447.78;;;-139.84;87.18
6528;BME280;3297;42.664;23.256;2022-07-06T01:58:52;50387.53;;;-139.84;87.57
6528;BME280;3297;42.664;23.256;2022-07-06T02:01:19;50440.00;;;-139.84;88.59
6528;BME280;3297;42.664;23.256;2022-07-06T02:03:46;50416.69;;;-139.84;87.90
6528;BME280;3297;42.664;23.256;2022-07-06T02:06:12;50416.69;;;-139.84;88.26
6528;BME280;3297;42.664;23.256;2022-07-06T02:08:39;50457.50;;;-139.84;88.37
6528;BME280;3297;42.664;23.256;2022-07-06T02:11:05;50447.78;;;-139.84;88.39
6528;BME280;3297;42.664;23.256;2022-07-06T02:13:31;50393.34;;;-139.84;88.43
6528;BME280;3297;42.664;23.256;2022-07-06T02:15:57;50438.06;;;-139.84;88.72
6528;BME280;3297;42.664;23.256;2022-07-06T02:18:23;50440.00;;;-139.84;88.51
6528;BME280;3297;42.664;23.256;2022-07-06T02:20:49;50436.13;;;-139.84;89.16
6528;BME280;3297;42.664;23.256;2022-07-06T02:23:14;50461.38;;;-139.84;89.16
6528;BME280;3297;42.664;23.256;2022-07-06T02:25:40;50420.56;;;-139.84;89.16
6528;BME280;3297;42.664;23.256;2022-07-06T02:28:06;50373.91;;;-139.84;89.43
6528;BME280;3297;42.664;23.256;2022-07-06T02:30:31;50430.28;;;-139.84;88.95
6528;BME280;3297;42.664;23.256;2022-07-06T02:32:57;50434.19;;;-139.84;89.37
6528;BME280;3297;42.664;23.256;2022-07-06T02:35:23;50434.19;;;-139.84;90.02
6528;BME280;3297;42.664;23.256;2022-07-06T02:37:48;50414.75;;;-139.84;89.93
6528;BME280;3297;42.664;23.256;2022-07-06T02:40:14;50453.59;;;-139.84;90.48
6528;BME280;3297;42.664;23.256;2022-07-06T02:42:40;50447.78;;;-139.84;90.51
6528;BME280;3297;42.664;23.256;2022-07-06T02:45:06;50420.56;;;-139.84;90.27
6528;BME280;3297;42.664;23.256;2022-07-06T02:47:32;50434.19;;;-139.84;90.15
6528;BME280;3297;42.664;23.256;2022-07-06T02:49:58;50416.69;;;-139.84;90.57
6528;BME280;3297;42.664;23.256;2022-07-06T02:52:23;50428.34;;;-139.84;90.79
6528;BME280;3297;42.664;23.256;2022-07-06T02:54:49;50420.56;;;-139.84;91.28
6528;BME280;3297;42.664;23.256;2022-07-06T02:57:16;50430.28;;;-139.84;91.38
6528;BME280;3297;42.664;23.256;2022-07-06T02:59:41;50453.59;;;-139.84;90.94
6528;BME280;3297;42.664;23.256;2022-07-06T03:02:07;50445.84;;;-139.84;89.14
6528;BME280;3297;42.664;23.256;2022-07-06T03:04:33;50463.34;;;-139.84;89.36
6528;BME280;3297;42.664;23.256;2022-07-06T03:06:59;50424.47;;;-139.84;88.72
6528;BME280;3297;42.664;23.256;2022-07-06T03:09:25;50434.19;;;-139.84;89.02
6528;BME280;3297;42.664;23.256;2022-07-06T03:11:51;50422.50;;;-139.84;88.87
6528;BME280;3297;42.664;23.256;2022-07-06T03:14:17;50465.28;;;-139.84;88.99
6528;BME280;3297;42.664;23.256;2022-07-06T03:16:43;50440.00;;;-139.84;88.96
6528;BME280;3297;42.664;23.256;2022-07-06T03:19:08;50440.00;;;-139.84;88.85
6528;BME280;3297;42.664;23.256;2022-07-06T03:21:34;50428.34;;;-139.84;89.17
6528;BME280;3297;42.664;23.256;2022-07-06T03:23:59;50445.84;;;-139.84;88.97
6528;BME280;3297;42.664;23.256;2022-07-06T03:26:25;50422.50;;;-139.84;89.16
6528;BME280;3297;42.664;23.256;2022-07-06T03:28:50;50449.72;;;-139.84;89.65
6528;BME280;3297;42.664;23.256;2022-07-06T03:31:16;50471.09;;;-139.84;90.09
6528;BME280;3297;42.664;23.256;2022-07-06T03:33:41;50455.56;;;-139.84;90.09
6528;BME280;3297;42.664;23.256;2022-07-06T03:36:07;50416.69;;;-139.84;89.88
6528;BME280;3297;42.664;23.256;2022-07-06T03:38:34;50440.00;;;-139.84;90.58
6528;BME280;3297;42.664;23.256;2022-07-06T03:40:59;50453.59;;;-139.84;91.24
6528;BME280;3297;42.664;23.256;2022-07-06T03:43:25;50422.50;;;-139.84;91.69
6528;BME280;3297;42.664;23.256;2022-07-06T03:45:50;50432.22;;;-139.84;92.41
6528;BME280;3297;42.664;23.256;2022-07-06T03:48:16;50445.84;;;-139.84;91.28
6528;BME280;3297;42.664;23.256;2022-07-06T03:50:42;50445.84;;;-139.84;90.92
6528;BME280;3297;42.664;23.256;2022-07-06T03:53:08;50443.91;;;-139.84;90.94
6528;BME280;3297;42.664;23.256;2022-07-06T03:55:34;50432.22;;;-139.84;89.49
6528;BME280;3297;42.664;23.256;2022-07-06T03:57:59;50447.78;;;-139.84;89.41
6528;BME280;3297;42.664;23.256;2022-07-06T04:00:25;50424.47;;;-139.84;87.96
6528;BME280;3297;42.664;23.256;2022-07-06T04:02:50;50428.34;;;-139.84;87.84
6528;BME280;3297;42.664;23.256;2022-07-06T04:05:16;50478.88;;;-139.84;86.72
6528;BME280;3297;42.664;23.256;2022-07-06T04:07:47;50494.44;;;-139.84;86.17
6528;BME280;3297;42.664;23.256;2022-07-06T04:10:13;50459.44;;;-139.84;86.28
6528;BME280;3297;42.664;23.256;2022-07-06T04:12:43;50443.91;;;-139.84;86.69
6528;BME280;3297;42.664;23.256;2022-07-06T04:15:11;50451.66;;;-139.84;86.14
6528;BME280;3297;42.664;23.256;2022-07-06T04:17:38;50455.56;;;-139.84;85.29
6528;BME280;3297;42.664;23.256;2022-07-06T04:20:19;50471.09;;;-139.84;85.33
6528;BME280;3297;42.664;23.256;2022-07-06T04:22:46;50441.94;;;-139.84;85.24
6528;BME280;3297;42.664;23.256;2022-07-06T04:25:11;50424.47;;;-139.84;85.04
6528;BME280;3297;42.664;23.256;2022-07-06T04:27:37;50451.66;;;-139.84;82.52
6528;BME280;3297;42.664;23.256;2022-07-06T04:30:04;50469.16;;;-139.84;82.32
6528;BME280;3297;42.664;23.256;2022-07-06T04:32:30;50457.50;;;-139.84;82.26
6528;BME280;3297;42.664;23.256;2022-07-06T04:34:56;50488.59;;;-139.84;82.41
6528;BME280;3297;42.664;23.256;2022-07-06T04:37:21;50434.19;;;-139.84;82.82
6528;BME280;3297;42.664;23.256;2022-07-06T04:39:47;50490.53;;;-139.84;81.14
6528;BME280;3297;42.664;23.256;2022-07-06T04:42:12;50494.44;;;-139.84;81.72
6528;BME280;3297;42.664;23.256;2022-07-06T04:44:38;50482.78;;;-139.84;79.64
6528;BME280;3297;42.664;23.256;2022-07-06T04:47:04;50475.00;;;-139.84;80.47
6528;BME280;3297;42.664;23.256;2022-07-06T04:49:29;50457.50;;;-139.84;80.63
6528;BME280;3297;42.664;23.256;2022-07-06T04:51:55;50482.78;;;-139.84;81.73
6528;BME280;3297;42.664;23.256;2022-07-06T04:54:20;50486.66;;;-139.84;80.70
6528;BME280;3297;42.664;23.256;2022-07-06T04:56:46;50478.88;;;-139.84;79.38
6528;BME280;3297;42.664;23.256;2022-07-06T04:59:12;50455.56;;;-139.84;80.06
6528;BME280;3297;42.664;23.256;2022-07-06T05:01:38;50533.31;;;-139.84;79.97
6528;BME280;3297;42.664;23.256;2022-07-06T05:04:04;50465.28;;;-139.84;80.10
6528;BME280;3297;42.664;23.256;2022-07-06T05:06:29;50480.81;;;-139.84;79.69
6528;BME280;3297;42.664;23.256;2022-07-06T05:08:55;50486.66;;;-139.84;78.80
6528;BME280;3297;42.664;23.256;2022-07-06T05:11:21;50473.03;;;-139.84;79.29
6528;BME280;3297;42.664;23.256;2022-07-06T05:13:46;50517.75;;;-139.84;79.70
6528;BME280;3297;42.664;23.256;2022-07-06T05:16:12;50513.88;;;-139.84;73.41
6528;BME280;3297;42.664;23.256;2022-07-06T05:18:38;50541.06;;;-139.84;68.53
6528;BME280;3297;42.664;23.256;2022-07-06T05:21:03;50529.41;;;-139.84;65.22
6528;BME280;3297;42.664;23.256;2022-07-06T05:23:29;50517.75;;;-139.84;62.98
6528;BME280;3297;42.664;23.256;2022-07-06T05:25:54;50502.19;;;-139.84;61.74
6528;BME280;3297;42.664;23.256;2022-07-06T05:28:20;50521.63;;;-139.84;60.67
6528;BME280;3297;42.664;23.256;2022-07-06T05:30:45;50523.59;;;-139.84;60.28
6528;BME280;3297;42.664;23.256;2022-07-06T05:33:11;50564.41;;;-139.84;60.06
6528;BME280;3297;42.664;23.256;2022-07-06T05:35:36;50537.19;;;-139.84;59.72
6528;BME280;3297;42.664;23.256;2022-07-06T05:38:02;50498.31;;;-139.84;59.36
6528;BME280;3297;42.664;23.256;2022-07-06T05:40:27;50529.41;;;-139.84;59.37
6528;BME280;3297;42.664;23.256;2022-07-06T05:42:53;50554.69;;;-139.84;59.07
6528;BME280;3297;42.664;23.256;2022-07-06T05:45:19;50517.75;;;-139.84;58.50
6528;BME280;3297;42.664;23.256;2022-07-06T05:47:44;50544.97;;;-139.84;58.95
6528;BME280;3297;42.664;23.256;2022-07-06T05:50:28;50556.63;;;-139.84;58.94
6528;BME280;3297;42.664;23.256;2022-07-06T05:53:01;50490.53;;;-139.84;58.37
6528;BME280;3297;42.664;23.256;2022-07-06T05:55:27;50570.22;;;-139.84;58.62
6528;BME280;3297;42.664;23.256;2022-07-06T05:57:53;50502.19;;;-139.84;58.45
6528;BME280;3297;42.664;23.256;2022-07-06T06:00:22;50529.41;;;-139.84;58.51
6528;BME280;3297;42.664;23.256;2022-07-06T06:02:48;50537.19;;;-139.84;58.02
6528;BME280;3297;42.664;23.256;2022-07-06T06:05:14;50521.63;;;-139.84;57.36
6528;BME280;3297;42.664;23.256;2022-07-06T06:07:40;50537.19;;;-139.84;57.50
6528;BME280;3297;42.664;23.256;2022-07-06T06:10:09;50537.19;;;-139.84;57.84
6528;BME280;3297;42.664;23.256;2022-07-06T06:12:35;50525.53;;;-139.84;57.36
6528;BME280;3297;42.664;23.256;2022-07-06T06:15:01;50552.75;;;-139.84;57.05
6528;BME280;3297;42.664;23.256;2022-07-06T06:17:27;50556.63;;;-139.84;56.97
6528;BME280;3297;42.664;23.256;2022-07-06T06:19:53;50568.28;;;-139.84;56.83
6528;BME280;3297;42.664;23.256;2022-07-06T06:22:19;50509.97;;;-139.84;56.88
6528;BME280;3297;42.664;23.256;2022-07-06T06:24:44;50560.50;;;-139.84;57.16
6528;BME280;3297;42.664;23.256;2022-07-06T06:27:10;50543.03;;;-139.84;57.04
6528;BME280;3297;42.664;23.256;2022-07-06T06:29:36;50544.97;;;-139.84;57.66
6528;BME280;3297;42.664;23.256;2022-07-06T06:32:02;50509.97;;;-139.84;57.60
6528;BME280;3297;42.664;23.256;2022-07-06T06:34:28;50556.63;;;-139.84;58.09
6528;BME280;3297;42.664;23.256;2022-07-06T06:36:54;50550.78;;;-139.84;58.19
6528;BME280;3297;42.664;23.256;2022-07-06T06:39:20;50550.78;;;-139.84;58.23
6528;BME280;3297;42.664;23.256;2022-07-06T06:41:45;50552.75;;;-139.84;58.17
6528;BME280;3297;42.664;23.256;2022-07-06T06:44:11;50541.06;;;-139.84;58.38
6528;BME280;3297;42.664;23.256;2022-07-06T06:46:36;50576.06;;;-139.84;58.17
6528;BME280;3297;42.664;23.256;2022-07-06T06:49:03;50568.28;;;-139.84;57.61
6528;BME280;3297;42.664;23.256;2022-07-06T06:51:29;50595.50;;;-139.84;56.38
6528;BME280;3297;42.664;23.256;2022-07-06T06:53:54;50562.47;;;-139.84;56.03
6528;BME280;3297;42.664;23.256;2022-07-06T06:56:20;50529.41;;;-139.84;55.99
6528;BME280;3297;42.664;23.256;2022-07-06T06:58:45;50541.06;;;-139.84;56.38
6528;BME280;3297;42.664;23.256;2022-07-06T07:01:11;50593.56;;;-139.84;56.56
6528;BME280;3297;42.664;23.256;2022-07-06T07:03:36;50564.41;;;-139.84;56.90
6528;BME280;3297;42.664;23.256;2022-07-06T07:06:02;50525.53;;;-139.84;57.67
6528;BME280;3297;42.664;23.256;2022-07-06T07:08:28;50525.53;;;-139.84;58.87
6528;BME280;3297;42.664;23.256;2022-07-06T07:10:53;50543.03;;;-139.84;59.53
6528;BME280;3297;42.664;23.256;2022-07-06T07:13:18;50537.19;;;-139.84;61.36
6528;BME280;3297;42.664;23.256;2022-07-06T07:15:47;50521.63;;;-139.84;61.90
6528;BME280;3297;42.664;23.256;2022-07-06T07:18:12;50552.75;;;-139.84;62.60
6528;BME280;3297;42.664;23.256;2022-07-06T07:20:38;50537.19;;;-139.84;62.65
6528;BME280;3297;42.664;23.256;2022-07-06T07:23:03;50556.63;;;-139.84;62.96
6528;BME280;3297;42.664;23.256;2022-07-06T07:25:29;50587.72;;;-139.84;63.65
6528;BME280;3297;42.664;23.256;2022-07-06T07:27:54;50537.19;;;-139.84;64.20
6528;BME280;3297;42.664;23.256;2022-07-06T07:30:20;50529.41;;;-139.84;64.06
6528;BME280;3297;42.664;23.256;2022-07-06T07:32:46;50552.75;;;-139.84;63.45
6528;BME280;3297;42.664;23.256;2022-07-06T07:35:12;50513.88;;;-139.84;63.95
6528;BME280;3297;42.664;23.256;2022-07-06T07:37:37;50517.75;;;-139.84;64.62
6528;BME280;3297;42.664;23.256;2022-07-06T07:40:03;50521.63;;;-139.84;64.20
6528;BME280;3297;42.664;23.256;2022-07-06T07:42:30;50529.41;;;-139.84;64.06
6528;BME280;3297;42.664;23.256;2022-07-06T07:44:55;50541.06;;;-139.84;64.84
6528;BME280;3297;42.664;23.256;2022-07-06T07:47:21;50550.78;;;-139.84;65.37
6528;BME280;3297;42.664;23.256;2022-07-06T07:49:46;50511.91;;;-139.84;65.42
6528;BME280;3297;42.664;23.256;2022-07-06T07:52:12;50525.53;;;-139.84;65.69
6528;BME280;3297;42.664;23.256;2022-07-06T07:54:38;50560.50;;;-139.84;65.36
6528;BME280;3297;42.664;23.256;2022-07-06T07:57:03;50548.84;;;-139.84;65.82
6528;BME280;3297;42.664;23.256;2022-07-06T07:59:29;50525.53;;;-139.84;64.15
6528;BME280;3297;42.664;23.256;2022-07-06T08:01:55;50529.41;;;-139.84;63.37
6528;BME280;3297;42.664;23.256;2022-07-06T08:04:20;50583.84;;;-139.84;62.75
6528;BME280;3297;42.664;23.256;2022-07-06T08:06:46;50554.69;;;-139.84;62.73
6528;BME280;3297;42.664;23.256;2022-07-06T08:09:12;50556.63;;;-139.84;63.76
6528;BME280;3297;42.664;23.256;2022-07-06T08:11:38;50556.63;;;-139.84;63.92
6528;BME280;3297;42.664;23.256;2022-07-06T08:14:04;50579.94;;;-139.84;62.55
6528;BME280;3297;42.664;23.256;2022-07-06T08:16:29;50564.41;;;-139.84;61.66
6528;BME280;3297;42.664;23.256;2022-07-06T08:18:55;50554.69;;;-139.84;61.01
6528;BME280;3297;42.664;23.256;2022-07-06T08:21:20;50544.97;;;-139.84;60.46
6528;BME280;3297;42.664;23.256;2022-07-06T08:23:46;50576.06;;;-139.84;58.56
6528;BME280;3297;42.664;23.256;2022-07-06T08:26:12;50548.84;;;-139.84;57.56
6528;BME280;3297;42.664;23.256;2022-07-06T08:28:38;50552.75;;;-139.84;55.99
6528;BME280;3297;42.664;23.256;2022-07-06T08:31:04;50581.91;;;-139.84;55.16
6528;BME280;3297;42.664;23.256;2022-07-06T08:33:29;50576.06;;;-139.84;54.89
6528;BME280;3297;42.664;23.256;2022-07-06T08:35:55;50562.47;;;-139.84;56.29
6528;BME280;3297;42.664;23.256;2022-07-06T08:38:21;50537.19;;;-139.84;56.37
6528;BME280;3297;42.664;23.256;2022-07-06T08:40:49;50595.50;;;-139.84;56.22
6528;BME280;3297;42.664;23.256;2022-07-06T08:43:15;50591.63;;;-139.84;55.75
6528;BME280;3297;42.664;23.256;2022-07-06T08:45:42;50568.28;;;-139.84;56.04
6528;BME280;3297;42.664;23.256;2022-07-06T08:48:10;50603.28;;;-139.84;55.44
6528;BME280;3297;42.664;23.256;2022-07-06T08:50:36;50583.84;;;-139.84;55.13
6528;BME280;3297;42.664;23.256;2022-07-06T08:53:03;50572.19;;;-139.84;55.33
6528;BME280;3297;42.664;23.256;2022-07-06T08:55:29;50556.63;;;-139.84;54.87
6528;BME280;3297;42.664;23.256;2022-07-06T08:57:55;50554.69;;;-139.84;55.26
6528;BME280;3297;42.664;23.256;2022-07-06T09:00:22;50583.84;;;-139.84;54.17
6528;BME280;3297;42.664;23.256;2022-07-06T09:02:49;50568.28;;;-139.84;52.70
6528;BME280;3297;42.664;23.256;2022-07-06T09:05:22;50597.44;;;-139.84;54.82
6528;BME280;3297;42.664;23.256;2022-07-06T09:07:52;50595.50;;;-139.84;55.00
6528;BME280;3297;42.664;23.256;2022-07-06T09:10:21;50556.63;;;-139.84;55.34
6528;BME280;3297;42.664;23.256;2022-07-06T09:12:47;50611.06;;;-139.84;56.10
6528;BME280;3297;42.664;23.256;2022-07-06T09:15:14;50564.41;;;-139.84;54.49
6528;BME280;3297;42.664;23.256;2022-07-06T09:17:41;50566.34;;;-139.84;53.71
6528;BME280;3297;42.664;23.256;2022-07-06T09:20:09;50581.91;;;-139.84;52.83
6528;BME280;3297;42.664;23.256;2022-07-06T09:22:36;50572.19;;;-139.84;53.23
6528;BME280;3297;42.664;23.256;2022-07-06T09:25:12;50578.00;;;-139.84;53.54
6528;BME280;3297;42.664;23.256;2022-07-06T09:30:06;50578.00;;;-139.84;53.57
6528;BME280;3297;42.664;23.256;2022-07-06T09:32:41;50579.94;;;-139.84;53.84
6528;BME280;3297;42.664;23.256;2022-07-06T09:35:07;50587.72;;;-139.84;52.68
6528;BME280;3297;42.664;23.256;2022-07-06T09:37:33;50595.50;;;-139.84;52.78
6528;BME280;3297;42.664;23.256;2022-07-06T09:39:58;50546.91;;;-139.84;51.86
6528;BME280;3297;42.664;23.256;2022-07-06T09:42:25;50558.56;;;-139.84;52.25
6528;BME280;3297;42.664;23.256;2022-07-06T09:44:51;50568.28;;;-139.84;52.44
6528;BME280;3297;42.664;23.256;2022-07-06T09:47:17;50576.06;;;-139.84;51.72
6528;BME280;3297;42.664;23.256;2022-07-06T09:49:45;50589.66;;;-139.84;52.79
6528;BME280;3297;42.664;23.256;2022-07-06T09:52:11;50583.84;;;-139.84;53.44
6528;BME280;3297;42.664;23.256;2022-07-06T09:54:38;50605.22;;;-139.84;53.10
6528;BME280;3297;42.664;23.256;2022-07-06T09:57:04;50587.72;;;-139.84;50.96
6528;BME280;3297;42.664;23.256;2022-07-06T09:59:31;50591.63;;;-139.84;50.69
6528;BME280;3297;42.664;23.256;2022-07-06T10:02:00;50572.19;;;-139.84;50.96
6528;BME280;3297;42.664;23.256;2022-07-06T10:04:27;50611.06;;;-139.84;51.35
6528;BME280;3297;42.664;23.256;2022-07-06T10:06:54;50574.13;;;-139.84;50.72
6528;BME280;3297;42.664;23.256;2022-07-06T10:09:22;50556.63;;;-139.84;51.36
6528;BME280;3297;42.664;23.256;2022-07-06T10:11:55;50552.75;;;-139.84;49.79
6528;BME280;3297;42.664;23.256;2022-07-06T10:14:22;50576.06;;;-139.84;49.72
6528;BME280;3297;42.664;23.256;2022-07-06T10:16:49;50562.47;;;-139.84;50.42
6528;BME280;3297;42.664;23.256;2022-07-06T10:19:16;50562.47;;;-139.84;50.22
6528;BME280;3297;42.664;23.256;2022-07-06T10:21:43;50562.47;;;-139.84;50.55
6528;BME280;3297;42.664;23.256;2022-07-06T10:24:09;50583.84;;;-139.84;49.97
6528;BME280;3297;42.664;23.256;2022-07-06T10:26:36;50564.41;;;-139.84;50.09
6528;BME280;3297;42.664;23.256;2022-07-06T10:29:03;50581.91;;;-139.84;49.21
6528;BME280;3297;42.664;23.256;2022-07-06T10:31:30;50560.50;;;-139.84;47.52
6528;BME280;3297;42.664;23.256;2022-07-06T10:34:01;50611.06;;;-139.84;48.52
6528;BME280;3297;42.664;23.256;2022-07-06T10:36:28;50587.72;;;-139.84;48.66
6528;BME280;3297;42.664;23.256;2022-07-06T10:38:54;50583.84;;;-139.84;48.16
6528;BME280;3297;42.664;23.256;2022-07-06T10:41:33;50568.28;;;-139.84;47.87
6528;BME280;3297;42.664;23.256;2022-07-06T10:44:19;50591.63;;;-139.84;46.53
6528;BME280;3297;42.664;23.256;2022-07-06T10:46:56;50591.63;;;-139.84;46.70
6528;BME280;3297;42.664;23.256;2022-07-06T10:49:23;50603.28;;;-139.84;46.32
6528;BME280;3297;42.664;23.256;2022-07-06T10:51:49;50603.28;;;-139.84;46.09
6528;BME280;3297;42.664;23.256;2022-07-06T10:54:16;50607.16;;;-139.84;45.18
6528;BME280;3297;42.664;23.256;2022-07-06T10:56:47;50564.41;;;-139.84;45.01
6528;BME280;3297;42.664;23.256;2022-07-06T11:02:17;50578.00;;;-139.84;45.75
6528;BME280;3297;42.664;23.256;2022-07-06T11:04:48;50585.78;;;-139.84;46.17
6528;BME280;3297;42.664;23.256;2022-07-06T11:07:17;50576.06;;;-139.84;46.23
6528;BME280;3297;42.664;23.256;2022-07-06T11:09:54;50595.50;;;-139.84;45.86
6528;BME280;3297;42.664;23.256;2022-07-06T11:12:20;50562.47;;;-139.84;44.11
6528;BME280;3297;42.664;23.256;2022-07-06T11:14:47;50579.94;;;-139.84;44.19
6528;BME280;3297;42.664;23.256;2022-07-06T11:17:13;50595.50;;;-139.84;44.35
6528;BME280;3297;42.664;23.256;2022-07-06T11:19:50;50595.50;;;-139.84;44.73
6528;BME280;3297;42.664;23.256;2022-07-06T11:22:17;50589.66;;;-139.84;44.13
6528;BME280;3297;42.664;23.256;2022-07-06T11:24:44;50560.50;;;-139.84;45.62
6528;BME280;3297;42.664;23.256;2022-07-06T11:27:10;50581.91;;;-139.84;45.97
6528;BME280;3297;42.664;23.256;2022-07-06T11:29:36;50576.06;;;-139.84;46.55
6528;BME280;3297;42.664;23.256;2022-07-06T11:32:05;50587.72;;;-139.84;45.75
6528;BME280;3297;42.664;23.256;2022-07-06T11:34:33;50579.94;;;-139.84;44.54
6528;BME280;3297;42.664;23.256;2022-07-06T11:37:03;50587.72;;;-139.84;43.90
6528;BME280;3297;42.664;23.256;2022-07-06T11:39:31;50576.06;;;-139.84;43.50
6528;BME280;3297;42.664;23.256;2022-07-06T11:41:58;50570.22;;;-139.84;43.94
6528;BME280;3297;42.664;23.256;2022-07-06T11:44:24;50579.94;;;-139.84;44.24
6528;BME280;3297;42.664;23.256;2022-07-06T11:46:50;50564.41;;;-139.84;44.79
6528;BME280;3297;42.664;23.256;2022-07-06T11:49:16;50593.56;;;-139.84;44.79
6528;BME280;3297;42.664;23.256;2022-07-06T11:51:44;50576.06;;;-139.84;45.05
6528;BME280;3297;42.664;23.256;2022-07-06T11:54:20;50568.28;;;-139.84;44.65
6528;BME280;3297;42.664;23.256;2022-07-06T11:59:21;50556.63;;;-139.84;44.81
6528;BME280;3297;42.664;23.256;2022-07-06T12:01:47;50544.97;;;-139.84;45.58
6528;BME280;3297;42.664;23.256;2022-07-06T12:04:12;50574.13;;;-139.84;44.97
6528;BME280;3297;42.664;23.256;2022-07-06T12:06:38;50581.91;;;-139.84;45.12
6528;BME280;3297;42.664;23.256;2022-07-06T12:09:04;50558.56;;;-139.84;45.11
6528;BME280;3297;42.664;23.256;2022-07-06T12:11:36;50591.63;;;-139.84;45.65
6528;BME280;3297;42.664;23.256;2022-07-06T12:14:12;50560.50;;;-139.84;45.58
6528;BME280;3297;42.664;23.256;2022-07-06T12:16:38;50560.50;;;-139.84;46.37
6528;BME280;3297;42.664;23.256;2022-07-06T12:19:05;50597.44;;;-139.84;45.89
6528;BME280;3297;42.664;23.256;2022-07-06T12:21:31;50572.19;;;-139.84;45.72
6528;BME280;3297;42.664;23.256;2022-07-06T12:23:57;50574.13;;;-139.84;46.17
6528;BME280;3297;42.664;23.256;2022-07-06T12:26:26;50579.94;;;-139.84;46.44
6528;BME280;3297;42.664;23.256;2022-07-06T12:29:12;50605.22;;;-139.84;47.01
6528;BME280;3297;42.664;23.256;2022-07-06T12:37:07;50539.13;;;-139.84;46.66
6528;BME280;3297;42.664;23.256;2022-07-06T12:39:45;50583.84;;;-139.84;45.74
6528;BME280;3297;42.664;23.256;2022-07-06T12:42:14;50603.28;;;-139.84;45.50
6528;BME280;3297;42.664;23.256;2022-07-06T12:44:45;50550.78;;;-139.84;46.15
6528;BME280;3297;42.664;23.256;2022-07-06T12:47:11;50613.00;;;-139.84;46.07
6528;BME280;3297;42.664;23.256;2022-07-06T12:49:38;50572.19;;;-139.84;46.36
6528;BME280;3297;42.664;23.256;2022-07-06T12:52:10;50568.28;;;-139.84;46.35
6528;BME280;3297;42.664;23.256;2022-07-06T12:54:47;50593.56;;;-139.84;46.68
6528;BME280;3297;42.664;23.256;2022-07-06T12:57:24;50574.13;;;-139.84;46.46
6528;BME280;3297;42.664;23.256;2022-07-06T13:07:28;50578.00;;;-139.84;46.33
6528;BME280;3297;42.664;23.256;2022-07-06T13:09:55;50566.34;;;-139.84;45.79